sensor_id;sensor_type;location;lat;lon;timestamp;temperature;humidity
11619;DHT22;5865;48.776;9.280;2023-03-01T00:01:13;-0.90;99.90
11619;DHT22;5865;48.776;9.280;2023-03-01T00:03:40;-0.80;99.90
11619;DHT22;5865;48.776;9.280;2023-03-01T00:06:08;-0.90;99.90
11619;DHT22;5865;48.776;9.280;2023-03-01T00:08:35;-0.80;99.90
11619;DHT22;5865;48.776;9.280;2023-03-01T00:11:04;-1.10;99.90
11619;DHT22;5865;48.776;9.280;2023-03-01T00:13:31;-1.20;99.90
11619;DHT22;5865;48.776;9.280;2023-03-01T00:18:27;-1.10;99.90
11619;DHT22;5865;48.776;9.280;2023-03-01T00:20:55;2.30;99.90
11619;DHT22;5865;48.776;9.280;2023-03-01T00:23:23;-1.60;99.90
11619;DHT22;5865;48.776;9.280;2023-03-01T00:25:53;-2.00;99.90
11619;DHT22;5865;48.776;9.280;2023-03-01T00:28:20;-2.10;99.90
11619;DHT22;5865;48.776;9.280;2023-03-01T00:35:43;-2.50;99.90
11619;DHT22;5865;48.776;9.280;2023-03-01T00:38:10;-2.60;99.90
11619;DHT22;5865;48.776;9.280;2023-03-01T00:50:27;-3.30;99.90
11619;DHT22;5865;48.776;9.280;2023-03-01T00:55:23;-2.90;99.90
11619;DHT22;5865;48.776;9.280;2023-03-01T00:57:50;-3.10;99.90
11619;DHT22;5865;48.776;9.280;2023-03-01T01:07:46;-2.90;99.90
11619;DHT22;5865;48.776;9.280;2023-03-01T01:10:15;-2.50;99.90
11619;DHT22;5865;48.776;9.280;2023-03-01T01:15:11;-2.00;99.90
11619;DHT22;5865;48.776;9.280;2023-03-01T01:20:08;-1.70;99.90
11619;DHT22;5865;48.776;9.280;2023-03-01T01:27:32;-1.90;99.90
11619;DHT22;5865;48.776;9.280;2023-03-01T01:37:21;-1.80;99.90
11619;DHT22;5865;48.776;9.280;2023-03-01T01:42:17;-2.00;99.90
11619;DHT22;5865;48.776;9.280;2023-03-01T01:44:47;-2.00;99.90
11619;DHT22;5865;48.776;9.280;2023-03-01T01:47:15;-0.30;99.90
11619;DHT22;5865;48.776;9.280;2023-03-01T01:49:47;-2.20;99.90
11619;DHT22;5865;48.776;9.280;2023-03-01T01:52:18;-2.10;99.90
11619;DHT22;5865;48.776;9.280;2023-03-01T01:54:52;-2.00;99.90
11619;DHT22;5865;48.776;9.280;2023-03-01T01:57:27;-1.90;99.90
11619;DHT22;5865;48.776;9.280;2023-03-01T02:00:00;-1.90;99.90
11619;DHT22;5865;48.776;9.280;2023-03-01T02:02:39;-1.60;99.90
11619;DHT22;5865;48.776;9.280;2023-03-01T02:05:12;-1.20;99.90
11619;DHT22;5865;48.776;9.280;2023-03-01T02:07:42;-1.00;99.90
11619;DHT22;5865;48.776;9.280;2023-03-01T02:10:09;-0.80;99.90
11619;DHT22;5865;48.776;9.280;2023-03-01T02:12:38;-0.70;99.90
11619;DHT22;5865;48.776;9.280;2023-03-01T02:15:09;-0.60;99.90
11619;DHT22;5865;48.776;9.280;2023-03-01T02:17:50;-0.60;99.90
11619;DHT22;5865;48.776;9.280;2023-03-01T02:20:23;-0.40;99.90
11619;DHT22;5865;48.776;9.280;2023-03-01T02:22:54;-0.40;99.90
11619;DHT22;5865;48.776;9.280;2023-03-01T02:25:32;-0.30;99.90
11619;DHT22;5865;48.776;9.280;2023-03-01T02:28:08;-0.20;99.90
11619;DHT22;5865;48.776;9.280;2023-03-01T02:35:59;0.00;99.90
11619;DHT22;5865;48.776;9.280;2023-03-01T02:38:28;-0.10;99.90
11619;DHT22;5865;48.776;9.280;2023-03-01T02:40:56;0.00;99.90
11619;DHT22;5865;48.776;9.280;2023-03-01T02:43:30;0.00;99.90
11619;DHT22;5865;48.776;9.280;2023-03-01T02:46:03;0.10;99.90
11619;DHT22;5865;48.776;9.280;2023-03-01T02:48:40;0.10;99.90
11619;DHT22;5865;48.776;9.280;2023-03-01T02:51:13;-0.10;99.90
11619;DHT22;5865;48.776;9.280;2023-03-01T02:53:51;0.10;99.90
11619;DHT22;5865;48.776;9.280;2023-03-01T02:58:49;0.30;99.90
11619;DHT22;5865;48.776;9.280;2023-03-01T03:01:20;-0.10;99.90
11619;DHT22;5865;48.776;9.280;2023-03-01T03:03:47;0.20;99.90
11619;DHT22;5865;48.776;9.280;2023-03-01T03:13:36;-0.30;99.90
11619;DHT22;5865;48.776;9.280;2023-03-01T03:23:38;0.10;99.90
11619;DHT22;5865;48.776;9.280;2023-03-01T03:26:05;-0.10;99.90
11619;DHT22;5865;48.776;9.280;2023-03-01T03:35:58;0.10;99.90
11619;DHT22;5865;48.776;9.280;2023-03-01T03:41:00;0.10;99.90
11619;DHT22;5865;48.776;9.280;2023-03-01T03:43:28;0.30;99.90
11619;DHT22;5865;48.776;9.280;2023-03-01T03:50:53;0.20;99.90
11619;DHT22;5865;48.776;9.280;2023-03-01T03:53:25;0.10;99.90
11619;DHT22;5865;48.776;9.280;2023-03-01T03:55:52;0.20;99.90
11619;DHT22;5865;48.776;9.280;2023-03-01T03:58:21;0.20;99.90
11619;DHT22;5865;48.776;9.280;2023-03-01T04:00:50;0.20;99.90
11619;DHT22;5865;48.776;9.280;2023-03-01T04:03:19;0.20;99.90
11619;DHT22;5865;48.776;9.280;2023-03-01T04:05:47;0.10;99.90
11619;DHT22;5865;48.776;9.280;2023-03-01T04:08:16;0.10;99.90
11619;DHT22;5865;48.776;9.280;2023-03-01T04:10:48;0.20;99.90
11619;DHT22;5865;48.776;9.280;2023-03-01T04:13:17;0.20;99.90
11619;DHT22;5865;48.776;9.280;2023-03-01T04:15:45;0.30;99.90
11619;DHT22;5865;48.776;9.280;2023-03-01T04:23:09;0.20;99.90
11619;DHT22;5865;48.776;9.280;2023-03-01T04:25:46;0.00;99.90
11619;DHT22;5865;48.776;9.280;2023-03-01T04:35:38;0.10;99.90
11619;DHT22;5865;48.776;9.280;2023-03-01T04:38:06;0.10;99.90
11619;DHT22;5865;48.776;9.280;2023-03-01T04:43:03;0.20;99.90
11619;DHT22;5865;48.776;9.280;2023-03-01T04:45:31;0.00;99.90
11619;DHT22;5865;48.776;9.280;2023-03-01T04:50:27;0.40;99.90
11619;DHT22;5865;48.776;9.280;2023-03-01T04:52:55;0.30;99.90
11619;DHT22;5865;48.776;9.280;2023-03-01T04:55:25;0.20;99.90
11619;DHT22;5865;48.776;9.280;2023-03-01T05:00:21;0.20;99.90
11619;DHT22;5865;48.776;9.280;2023-03-01T05:05:23;0.20;99.90
11619;DHT22;5865;48.776;9.280;2023-03-01T05:10:19;0.30;99.90
11619;DHT22;5865;48.776;9.280;2023-03-01T05:15:13;0.30;99.90
11619;DHT22;5865;48.776;9.280;2023-03-01T05:25:05;0.20;99.90
11619;DHT22;5865;48.776;9.280;2023-03-01T05:32:43;0.00;99.90
11619;DHT22;5865;48.776;9.280;2023-03-01T05:35:11;0.20;99.90
11619;DHT22;5865;48.776;9.280;2023-03-01T05:37:41;0.20;99.90
11619;DHT22;5865;48.776;9.280;2023-03-01T05:40:10;0.40;99.90
11619;DHT22;5865;48.776;9.280;2023-03-01T05:47:38;0.30;99.90
11619;DHT22;5865;48.776;9.280;2023-03-01T05:57:34;0.10;99.90
11619;DHT22;5865;48.776;9.280;2023-03-01T06:05:06;0.20;99.90
11619;DHT22;5865;48.776;9.280;2023-03-01T06:12:30;0.20;99.90
11619;DHT22;5865;48.776;9.280;2023-03-01T06:24:48;0.20;99.90
11619;DHT22;5865;48.776;9.280;2023-03-01T06:29:43;0.30;99.90
11619;DHT22;5865;48.776;9.280;2023-03-01T06:39:31;0.00;99.90
11619;DHT22;5865;48.776;9.280;2023-03-01T06:49:22;0.10;99.90
11619;DHT22;5865;48.776;9.280;2023-03-01T06:56:46;-0.30;99.90
11619;DHT22;5865;48.776;9.280;2023-03-01T06:59:15;-0.50;99.90
11619;DHT22;5865;48.776;9.280;2023-03-01T07:04:10;-0.20;99.90
11619;DHT22;5865;48.776;9.280;2023-03-01T07:34:01;0.00;99.90
11619;DHT22;5865;48.776;9.280;2023-03-01T07:44:00;0.50;99.90
11619;DHT22;5865;48.776;9.280;2023-03-01T07:51:24;0.70;99.90
11619;DHT22;5865;48.776;9.280;2023-03-01T07:53:51;0.80;99.90
11619;DHT22;5865;48.776;9.280;2023-03-01T07:58:47;0.90;99.90
11619;DHT22;5865;48.776;9.280;2023-03-01T08:01:19;1.00;99.90
11619;DHT22;5865;48.776;9.280;2023-03-01T08:06:16;1.20;99.90
11619;DHT22;5865;48.776;9.280;2023-03-01T08:08:45;1.10;99.90
11619;DHT22;5865;48.776;9.280;2023-03-01T08:23:58;1.80;99.90
11619;DHT22;5865;48.776;9.280;2023-03-01T08:31:24;1.80;99.90
11619;DHT22;5865;48.776;9.280;2023-03-01T08:51:22;2.70;99.90
11619;DHT22;5865;48.776;9.280;2023-03-01T08:56:18;3.00;99.90
11619;DHT22;5865;48.776;9.280;2023-03-01T08:58:48;3.10;99.90
11619;DHT22;5865;48.776;9.280;2023-03-01T09:01:18;3.20;99.90
11619;DHT22;5865;48.776;9.280;2023-03-01T09:06:15;3.00;99.90
11619;DHT22;5865;48.776;9.280;2023-03-01T09:08:44;3.10;99.90
11619;DHT22;5865;48.776;9.280;2023-03-01T09:11:14;3.10;99.90
11619;DHT22;5865;48.776;9.280;2023-03-01T09:16:15;3.20;99.90
11619;DHT22;5865;48.776;9.280;2023-03-01T09:18:44;3.50;99.90
11619;DHT22;5865;48.776;9.280;2023-03-01T09:21:14;3.50;99.90
11619;DHT22;5865;48.776;9.280;2023-03-01T09:26:11;3.90;99.90
11619;DHT22;5865;48.776;9.280;2023-03-01T09:28:42;4.10;99.90
11619;DHT22;5865;48.776;9.280;2023-03-01T09:31:14;4.00;99.90
11619;DHT22;5865;48.776;9.280;2023-03-01T09:36:12;3.60;99.90
11619;DHT22;5865;48.776;9.280;2023-03-01T09:41:24;3.80;99.90
11619;DHT22;5865;48.776;9.280;2023-03-01T09:43:56;3.80;99.90
11619;DHT22;5865;48.776;9.280;2023-03-01T09:46:36;4.10;99.90
11619;DHT22;5865;48.776;9.280;2023-03-01T09:49:09;4.30;99.90
11619;DHT22;5865;48.776;9.280;2023-03-01T09:54:05;4.40;99.90
11619;DHT22;5865;48.776;9.280;2023-03-01T09:56:36;4.10;99.90
11619;DHT22;5865;48.776;9.280;2023-03-01T09:59:16;4.20;99.90
11619;DHT22;5865;48.776;9.280;2023-03-01T10:01:54;4.30;99.90
11619;DHT22;5865;48.776;9.280;2023-03-01T10:04:40;4.90;99.90
11619;DHT22;5865;48.776;9.280;2023-03-01T10:07:30;5.20;99.90
11619;DHT22;5865;48.776;9.280;2023-03-01T10:12:34;5.30;99.90
11619;DHT22;5865;48.776;9.280;2023-03-01T10:15:05;5.40;99.90
11619;DHT22;5865;48.776;9.280;2023-03-01T10:17:39;5.00;99.90
11619;DHT22;5865;48.776;9.280;2023-03-01T10:20:18;5.30;99.90
11619;DHT22;5865;48.776;9.280;2023-03-01T10:27:54;5.50;99.90
11619;DHT22;5865;48.776;9.280;2023-03-01T10:30:30;5.40;99.90
11619;DHT22;5865;48.776;9.280;2023-03-01T10:33:01;5.70;99.90
11619;DHT22;5865;48.776;9.280;2023-03-01T10:35:31;5.70;99.90
11619;DHT22;5865;48.776;9.280;2023-03-01T10:38:04;5.90;99.90
11619;DHT22;5865;48.776;9.280;2023-03-01T10:43:00;6.20;99.90
11619;DHT22;5865;48.776;9.280;2023-03-01T10:45:33;5.90;99.90
11619;DHT22;5865;48.776;9.280;2023-03-01T10:48:12;6.00;99.90
11619;DHT22;5865;48.776;9.280;2023-03-01T10:50:42;6.10;99.90
11619;DHT22;5865;48.776;9.280;2023-03-01T10:53:26;6.20;99.90
11619;DHT22;5865;48.776;9.280;2023-03-01T10:55:59;5.80;99.90
11619;DHT22;5865;48.776;9.280;2023-03-01T10:58:28;6.00;99.90
11619;DHT22;5865;48.776;9.280;2023-03-01T11:00:59;6.10;99.90
11619;DHT22;5865;48.776;9.280;2023-03-01T11:03:31;6.10;99.90
11619;DHT22;5865;48.776;9.280;2023-03-01T11:06:03;5.90;99.90
11619;DHT22;5865;48.776;9.280;2023-03-01T11:08:36;5.90;99.90
11619;DHT22;5865;48.776;9.280;2023-03-01T11:11:19;5.90;99.90
11619;DHT22;5865;48.776;9.280;2023-03-01T11:13:57;6.10;99.90
11619;DHT22;5865;48.776;9.280;2023-03-01T11:16:28;6.20;99.90
11619;DHT22;5865;48.776;9.280;2023-03-01T11:19:00;6.20;99.90
11619;DHT22;5865;48.776;9.280;2023-03-01T11:21:29;7.30;99.90
11619;DHT22;5865;48.776;9.280;2023-03-01T11:24:00;6.50;99.90
11619;DHT22;5865;48.776;9.280;2023-03-01T11:26:28;7.10;99.90
11619;DHT22;5865;48.776;9.280;2023-03-01T11:29:02;7.30;99.90
11619;DHT22;5865;48.776;9.280;2023-03-01T11:31:31;7.40;99.90
11619;DHT22;5865;48.776;9.280;2023-03-01T11:34:06;7.40;99.90
11619;DHT22;5865;48.776;9.280;2023-03-01T11:36:38;7.10;99.90
11619;DHT22;5865;48.776;9.280;2023-03-01T11:39:17;7.30;99.90
11619;DHT22;5865;48.776;9.280;2023-03-01T11:41:49;7.50;99.90
11619;DHT22;5865;48.776;9.280;2023-03-01T11:44:24;6.90;99.90
11619;DHT22;5865;48.776;9.280;2023-03-01T11:47:11;7.00;99.90
11619;DHT22;5865;48.776;9.280;2023-03-01T11:49:58;7.90;99.90
11619;DHT22;5865;48.776;9.280;2023-03-01T11:52:35;7.90;99.90
11619;DHT22;5865;48.776;9.280;2023-03-01T11:55:23;7.80;99.40
11619;DHT22;5865;48.776;9.280;2023-03-01T11:58:14;8.00;99.20
11619;DHT22;5865;48.776;9.280;2023-03-01T12:01:00;8.10;99.40
11619;DHT22;5865;48.776;9.280;2023-03-01T12:04:02;8.00;98.80
11619;DHT22;5865;48.776;9.280;2023-03-01T12:06:52;7.80;97.40
11619;DHT22;5865;48.776;9.280;2023-03-01T12:09:36;7.70;97.90
11619;DHT22;5865;48.776;9.280;2023-03-01T12:12:32;7.90;97.10
11619;DHT22;5865;48.776;9.280;2023-03-01T12:15:23;7.80;99.30
11619;DHT22;5865;48.776;9.280;2023-03-01T12:18:08;7.30;98.50
11619;DHT22;5865;48.776;9.280;2023-03-01T12:20:43;7.80;99.90
11619;DHT22;5865;48.776;9.280;2023-03-01T12:26:28;8.10;99.10
11619;DHT22;5865;48.776;9.280;2023-03-01T12:29:09;8.30;96.90
11619;DHT22;5865;48.776;9.280;2023-03-01T12:31:49;8.30;96.80
11619;DHT22;5865;48.776;9.280;2023-03-01T12:34:38;8.40;96.10
11619;DHT22;5865;48.776;9.280;2023-03-01T12:37:25;7.90;97.80
11619;DHT22;5865;48.776;9.280;2023-03-01T12:40:26;7.90;98.90
11619;DHT22;5865;48.776;9.280;2023-03-01T12:43:07;8.10;98.30
11619;DHT22;5865;48.776;9.280;2023-03-01T12:45:56;8.70;97.50
11619;DHT22;5865;48.776;9.280;2023-03-01T12:48:40;8.50;96.60
11619;DHT22;5865;48.776;9.280;2023-03-01T12:51:13;8.70;97.30
11619;DHT22;5865;48.776;9.280;2023-03-01T12:53:44;8.00;95.90
11619;DHT22;5865;48.776;9.280;2023-03-01T12:56:13;8.20;96.80
11619;DHT22;5865;48.776;9.280;2023-03-01T12:58:51;8.40;96.60
11619;DHT22;5865;48.776;9.280;2023-03-01T13:01:26;8.60;97.20
11619;DHT22;5865;48.776;9.280;2023-03-01T13:04:13;8.50;95.70
11619;DHT22;5865;48.776;9.280;2023-03-01T13:06:47;8.60;96.80
11619;DHT22;5865;48.776;9.280;2023-03-01T13:09:26;8.80;96.50
11619;DHT22;5865;48.776;9.280;2023-03-01T13:11:56;8.70;96.60
11619;DHT22;5865;48.776;9.280;2023-03-01T13:14:44;8.60;95.90
11619;DHT22;5865;48.776;9.280;2023-03-01T13:17:32;8.50;97.00
11619;DHT22;5865;48.776;9.280;2023-03-01T13:22:29;8.90;95.90
11619;DHT22;5865;48.776;9.280;2023-03-01T13:25:13;8.70;96.70
11619;DHT22;5865;48.776;9.280;2023-03-01T13:30:41;9.00;95.30
11619;DHT22;5865;48.776;9.280;2023-03-01T13:33:44;9.20;95.30
11619;DHT22;5865;48.776;9.280;2023-03-01T13:36:47;9.40;95.00
11619;DHT22;5865;48.776;9.280;2023-03-01T13:39:28;9.50;94.20
11619;DHT22;5865;48.776;9.280;2023-03-01T13:41:58;9.30;94.40
11619;DHT22;5865;48.776;9.280;2023-03-01T13:44:28;9.20;94.10
11619;DHT22;5865;48.776;9.280;2023-03-01T13:46:59;8.90;94.30
11619;DHT22;5865;48.776;9.280;2023-03-01T13:49:30;9.10;94.00
11619;DHT22;5865;48.776;9.280;2023-03-01T13:54:31;10.50;91.30
11619;DHT22;5865;48.776;9.280;2023-03-01T13:57:00;10.80;90.60
11619;DHT22;5865;48.776;9.280;2023-03-01T13:59:29;11.70;85.30
11619;DHT22;5865;48.776;9.280;2023-03-01T14:02:01;12.80;79.90
11619;DHT22;5865;48.776;9.280;2023-03-01T14:04:30;13.80;74.90
11619;DHT22;5865;48.776;9.280;2023-03-01T14:07:11;13.20;72.10
11619;DHT22;5865;48.776;9.280;2023-03-01T14:09:41;12.80;74.20
11619;DHT22;5865;48.776;9.280;2023-03-01T14:12:25;13.30;72.90
11619;DHT22;5865;48.776;9.280;2023-03-01T14:14:59;12.20;72.00
11619;DHT22;5865;48.776;9.280;2023-03-01T14:17:49;12.90;71.20
11619;DHT22;5865;48.776;9.280;2023-03-01T14:20:21;12.90;72.40
11619;DHT22;5865;48.776;9.280;2023-03-01T14:22:50;13.00;69.70
11619;DHT22;5865;48.776;9.280;2023-03-01T14:25:36;13.60;69.50
11619;DHT22;5865;48.776;9.280;2023-03-01T14:28:12;13.50;67.90
11619;DHT22;5865;48.776;9.280;2023-03-01T14:30:43;13.70;66.60
11619;DHT22;5865;48.776;9.280;2023-03-01T14:33:21;13.70;67.00
11619;DHT22;5865;48.776;9.280;2023-03-01T14:35:57;13.90;67.90
11619;DHT22;5865;48.776;9.280;2023-03-01T14:38:30;14.10;66.30
11619;DHT22;5865;48.776;9.280;2023-03-01T14:41:00;14.00;62.60
11619;DHT22;5865;48.776;9.280;2023-03-01T14:43:29;14.00;65.00
11619;DHT22;5865;48.776;9.280;2023-03-01T14:48:27;14.30;62.50
11619;DHT22;5865;48.776;9.280;2023-03-01T14:50:55;13.80;63.10
11619;DHT22;5865;48.776;9.280;2023-03-01T14:53:25;13.10;63.70
11619;DHT22;5865;48.776;9.280;2023-03-01T14:55:54;12.80;64.70
11619;DHT22;5865;48.776;9.280;2023-03-01T15:00:53;13.00;64.50
11619;DHT22;5865;48.776;9.280;2023-03-01T15:03:30;12.50;65.40
11619;DHT22;5865;48.776;9.280;2023-03-01T15:05:59;13.10;65.20
11619;DHT22;5865;48.776;9.280;2023-03-01T15:08:27;13.00;64.80
11619;DHT22;5865;48.776;9.280;2023-03-01T15:11:04;12.90;65.60
11619;DHT22;5865;48.776;9.280;2023-03-01T15:13:32;13.10;64.70
11619;DHT22;5865;48.776;9.280;2023-03-01T15:16:09;13.00;64.70
11619;DHT22;5865;48.776;9.280;2023-03-01T15:18:38;13.00;65.70
11619;DHT22;5865;48.776;9.280;2023-03-01T15:21:15;13.30;64.10
11619;DHT22;5865;48.776;9.280;2023-03-01T15:23:49;13.60;63.90
11619;DHT22;5865;48.776;9.280;2023-03-01T15:26:25;13.00;64.00
11619;DHT22;5865;48.776;9.280;2023-03-01T15:28:54;12.50;64.40
11619;DHT22;5865;48.776;9.280;2023-03-01T15:31:25;12.80;64.50
11619;DHT22;5865;48.776;9.280;2023-03-01T15:34:08;12.80;65.20
11619;DHT22;5865;48.776;9.280;2023-03-01T15:36:42;13.00;65.90
11619;DHT22;5865;48.776;9.280;2023-03-01T15:39:33;12.70;63.90
11619;DHT22;5865;48.776;9.280;2023-03-01T15:42:04;12.80;64.70
11619;DHT22;5865;48.776;9.280;2023-03-01T15:44:34;12.40;64.40
11619;DHT22;5865;48.776;9.280;2023-03-01T15:47:08;10.90;67.10
11619;DHT22;5865;48.776;9.280;2023-03-01T15:49:52;9.30;75.00
11619;DHT22;5865;48.776;9.280;2023-03-01T15:52:23;8.60;76.50
11619;DHT22;5865;48.776;9.280;2023-03-01T15:54:55;8.20;78.60
11619;DHT22;5865;48.776;9.280;2023-03-01T15:57:22;8.30;79.70
11619;DHT22;5865;48.776;9.280;2023-03-01T15:59:49;7.80;81.10
11619;DHT22;5865;48.776;9.280;2023-03-01T16:02:16;8.10;83.10
11619;DHT22;5865;48.776;9.280;2023-03-01T16:04:46;7.90;82.30
11619;DHT22;5865;48.776;9.280;2023-03-01T16:07:15;7.60;82.10
11619;DHT22;5865;48.776;9.280;2023-03-01T16:09:43;7.40;84.20
11619;DHT22;5865;48.776;9.280;2023-03-01T16:12:14;7.60;84.90
11619;DHT22;5865;48.776;9.280;2023-03-01T16:14:41;7.40;85.40
11619;DHT22;5865;48.776;9.280;2023-03-01T16:17:08;7.20;86.10
11619;DHT22;5865;48.776;9.280;2023-03-01T16:19:35;7.10;85.30
11619;DHT22;5865;48.776;9.280;2023-03-01T16:22:03;6.90;86.40
11619;DHT22;5865;48.776;9.280;2023-03-01T16:24:31;6.80;87.40
11619;DHT22;5865;48.776;9.280;2023-03-01T16:26:58;6.90;88.40
11619;DHT22;5865;48.776;9.280;2023-03-01T16:36:47;6.50;90.50
11619;DHT22;5865;48.776;9.280;2023-03-01T16:39:14;6.40;90.50
11619;DHT22;5865;48.776;9.280;2023-03-01T16:41:43;6.00;91.00
11619;DHT22;5865;48.776;9.280;2023-03-01T16:46:37;5.80;92.20
11619;DHT22;5865;48.776;9.280;2023-03-01T16:49:04;5.60;92.60
11619;DHT22;5865;48.776;9.280;2023-03-01T16:51:31;5.60;92.70
11619;DHT22;5865;48.776;9.280;2023-03-01T16:56:27;5.40;94.00
11619;DHT22;5865;48.776;9.280;2023-03-01T16:58:58;5.40;94.70
11619;DHT22;5865;48.776;9.280;2023-03-01T17:01:25;5.00;95.60
11619;DHT22;5865;48.776;9.280;2023-03-01T17:06:26;4.70;99.10
11619;DHT22;5865;48.776;9.280;2023-03-01T17:08:53;4.50;99.50
11619;DHT22;5865;48.776;9.280;2023-03-01T17:11:20;4.20;99.90
11619;DHT22;5865;48.776;9.280;2023-03-01T17:18:45;3.90;99.90
11619;DHT22;5865;48.776;9.280;2023-03-01T17:21:13;3.90;99.90
11619;DHT22;5865;48.776;9.280;2023-03-01T17:23:42;3.40;99.90
11619;DHT22;5865;48.776;9.280;2023-03-01T17:26:09;3.40;99.90
11619;DHT22;5865;48.776;9.280;2023-03-01T17:28:38;3.30;99.90
11619;DHT22;5865;48.776;9.280;2023-03-01T17:31:06;3.00;99.90
11619;DHT22;5865;48.776;9.280;2023-03-01T17:33:35;2.70;99.90
11619;DHT22;5865;48.776;9.280;2023-03-01T17:38:29;2.50;99.90
11619;DHT22;5865;48.776;9.280;2023-03-01T17:40:58;2.40;99.90
11619;DHT22;5865;48.776;9.280;2023-03-01T17:45:52;2.10;99.90
11619;DHT22;5865;48.776;9.280;2023-03-01T17:48:19;2.10;99.90
11619;DHT22;5865;48.776;9.280;2023-03-01T17:50:48;1.90;99.90
11619;DHT22;5865;48.776;9.280;2023-03-01T17:55:43;1.50;99.90
11619;DHT22;5865;48.776;9.280;2023-03-01T17:58:12;1.40;99.90
11619;DHT22;5865;48.776;9.280;2023-03-01T18:00:40;1.50;99.90
11619;DHT22;5865;48.776;9.280;2023-03-01T18:03:07;1.30;99.90
11619;DHT22;5865;48.776;9.280;2023-03-01T18:05:35;1.50;99.90
11619;DHT22;5865;48.776;9.280;2023-03-01T18:08:04;1.10;99.90
11619;DHT22;5865;48.776;9.280;2023-03-01T18:13:01;1.00;99.90
11619;DHT22;5865;48.776;9.280;2023-03-01T18:15:28;0.90;99.90
11619;DHT22;5865;48.776;9.280;2023-03-01T18:17:57;0.80;99.90
11619;DHT22;5865;48.776;9.280;2023-03-01T18:20:24;1.00;99.90
11619;DHT22;5865;48.776;9.280;2023-03-01T18:25:20;0.80;99.90
11619;DHT22;5865;48.776;9.280;2023-03-01T18:27:47;1.00;99.90
11619;DHT22;5865;48.776;9.280;2023-03-01T18:32:42;1.60;99.90
11619;DHT22;5865;48.776;9.280;2023-03-01T18:35:10;1.50;99.90
11619;DHT22;5865;48.776;9.280;2023-03-01T18:40:05;1.60;99.90
11619;DHT22;5865;48.776;9.280;2023-03-01T18:42:34;2.30;99.90
11619;DHT22;5865;48.776;9.280;2023-03-01T18:45:01;1.90;99.90
11619;DHT22;5865;48.776;9.280;2023-03-01T18:47:28;2.20;99.90
11619;DHT22;5865;48.776;9.280;2023-03-01T18:49:55;1.90;99.90
11619;DHT22;5865;48.776;9.280;2023-03-01T18:52:22;1.90;99.90
11619;DHT22;5865;48.776;9.280;2023-03-01T18:54:49;2.10;99.90
11619;DHT22;5865;48.776;9.280;2023-03-01T18:57:16;2.40;99.90
11619;DHT22;5865;48.776;9.280;2023-03-01T18:59:45;2.40;99.90
11619;DHT22;5865;48.776;9.280;2023-03-01T19:04:40;2.20;99.90
11619;DHT22;5865;48.776;9.280;2023-03-01T19:12:02;2.80;99.90
11619;DHT22;5865;48.776;9.280;2023-03-01T19:16:59;2.70;99.90
11619;DHT22;5865;48.776;9.280;2023-03-01T19:22:00;2.70;99.90
11619;DHT22;5865;48.776;9.280;2023-03-01T19:24:27;2.80;99.90
11619;DHT22;5865;48.776;9.280;2023-03-01T19:26:56;2.90;99.90
11619;DHT22;5865;48.776;9.280;2023-03-01T19:29:22;2.60;99.90
11619;DHT22;5865;48.776;9.280;2023-03-01T19:34:18;2.50;99.90
11619;DHT22;5865;48.776;9.280;2023-03-01T20:08:55;2.90;99.90
11619;DHT22;5865;48.776;9.280;2023-03-01T20:16:18;3.30;99.90
11619;DHT22;5865;48.776;9.280;2023-03-01T20:26:11;3.60;99.90
11619;DHT22;5865;48.776;9.280;2023-03-01T20:28:44;3.70;99.90
11619;DHT22;5865;48.776;9.280;2023-03-01T20:31:13;3.70;99.90
11619;DHT22;5865;48.776;9.280;2023-03-01T20:33:55;3.70;99.90
11619;DHT22;5865;48.776;9.280;2023-03-01T20:36:23;3.70;99.90
11619;DHT22;5865;48.776;9.280;2023-03-01T20:38:51;3.70;99.90
11619;DHT22;5865;48.776;9.280;2023-03-01T20:46:37;3.10;99.90
11619;DHT22;5865;48.776;9.280;2023-03-01T20:49:05;3.00;99.90
11619;DHT22;5865;48.776;9.280;2023-03-01T20:51:35;3.20;99.90
11619;DHT22;5865;48.776;9.280;2023-03-01T20:56:37;3.00;99.90
11619;DHT22;5865;48.776;9.280;2023-03-01T20:59:11;2.90;99.90
11619;DHT22;5865;48.776;9.280;2023-03-01T21:06:42;2.80;99.90
11619;DHT22;5865;48.776;9.280;2023-03-01T21:11:48;2.60;99.90
11619;DHT22;5865;48.776;9.280;2023-03-01T21:24:16;2.20;99.90
11619;DHT22;5865;48.776;9.280;2023-03-01T21:26:46;2.00;99.90
11619;DHT22;5865;48.776;9.280;2023-03-01T21:29:32;1.80;99.90
11619;DHT22;5865;48.776;9.280;2023-03-01T21:39:36;1.20;99.90
11619;DHT22;5865;48.776;9.280;2023-03-01T21:42:04;1.20;99.90
11619;DHT22;5865;48.776;9.280;2023-03-01T21:44:32;1.10;99.90
11619;DHT22;5865;48.776;9.280;2023-03-01T21:47:01;1.20;99.90
11619;DHT22;5865;48.776;9.280;2023-03-01T21:54:23;1.50;99.90
11619;DHT22;5865;48.776;9.280;2023-03-01T21:56:50;1.90;99.90
11619;DHT22;5865;48.776;9.280;2023-03-01T21:59:18;2.20;99.90
11619;DHT22;5865;48.776;9.280;2023-03-01T22:01:49;2.40;99.90
11619;DHT22;5865;48.776;9.280;2023-03-01T22:04:17;1.90;99.90
11619;DHT22;5865;48.776;9.280;2023-03-01T22:06:45;1.90;99.90
11619;DHT22;5865;48.776;9.280;2023-03-01T22:09:14;1.70;99.90
11619;DHT22;5865;48.776;9.280;2023-03-01T22:11:43;1.70;99.90
11619;DHT22;5865;48.776;9.280;2023-03-01T22:14:10;1.80;99.90
11619;DHT22;5865;48.776;9.280;2023-03-01T22:16:38;1.70;99.90
11619;DHT22;5865;48.776;9.280;2023-03-01T22:19:07;1.70;99.90
11619;DHT22;5865;48.776;9.280;2023-03-01T22:24:02;1.80;99.90
11619;DHT22;5865;48.776;9.280;2023-03-01T22:26:32;2.00;99.90
11619;DHT22;5865;48.776;9.280;2023-03-01T22:29:01;1.90;99.90
11619;DHT22;5865;48.776;9.280;2023-03-01T22:33:57;1.90;99.90
11619;DHT22;5865;48.776;9.280;2023-03-01T22:36:26;1.50;99.90
11619;DHT22;5865;48.776;9.280;2023-03-01T22:41:25;1.70;99.90
11619;DHT22;5865;48.776;9.280;2023-03-01T22:43:53;1.70;99.90
11619;DHT22;5865;48.776;9.280;2023-03-01T22:48:49;1.50;99.90
11619;DHT22;5865;48.776;9.280;2023-03-01T22:51:17;1.20;99.90
11619;DHT22;5865;48.776;9.280;2023-03-01T22:56:15;0.80;99.90
11619;DHT22;5865;48.776;9.280;2023-03-01T22:58:43;0.70;99.90
11619;DHT22;5865;48.776;9.280;2023-03-01T23:01:11;0.60;99.90
11619;DHT22;5865;48.776;9.280;2023-03-01T23:03:38;0.70;99.90
11619;DHT22;5865;48.776;9.280;2023-03-01T23:06:05;0.60;99.90
11619;DHT22;5865;48.776;9.280;2023-03-01T23:08:32;0.70;99.90
11619;DHT22;5865;48.776;9.280;2023-03-01T23:13:28;0.80;99.90
11619;DHT22;5865;48.776;9.280;2023-03-01T23:15:56;0.70;99.90
11619;DHT22;5865;48.776;9.280;2023-03-01T23:20:51;0.60;99.90
11619;DHT22;5865;48.776;9.280;2023-03-01T23:23:18;0.80;99.90
11619;DHT22;5865;48.776;9.280;2023-03-01T23:25:52;0.50;99.90
11619;DHT22;5865;48.776;9.280;2023-03-01T23:30:55;0.70;99.90
11619;DHT22;5865;48.776;9.280;2023-03-01T23:33:23;0.30;99.90
11619;DHT22;5865;48.776;9.280;2023-03-01T23:35:50;0.30;99.90
11619;DHT22;5865;48.776;9.280;2023-03-01T23:38:17;0.00;99.90
11619;DHT22;5865;48.776;9.280;2023-03-01T23:43:12;-0.10;99.90
11619;DHT22;5865;48.776;9.280;2023-03-01T23:45:40;-0.30;99.90
11619;DHT22;5865;48.776;9.280;2023-03-01T23:48:11;-0.40;99.90
11619;DHT22;5865;48.776;9.280;2023-03-01T23:53:08;-0.50;99.90
11619;DHT22;5865;48.776;9.280;2023-03-01T23:55:38;-0.70;99.90
11619;DHT22;5865;48.776;9.280;2023-03-01T23:58:08;-0.60;99.90
